Time;durP1;ratioP1;P1;durP2;ratioP2;P2;SDS_P1;SDS_P2;PMS_P1;PMS_P2;Temp;Humidity;BMP_temperature;BMP_pressure;BME280_temperature;BME280_humidity;BME280_pressure;Samples;Min_cycle;Max_cycle;Signal;HPM_P1;HPM_P2
2022/07/14 00:01:19;;;;;;;8.57;4.90;;;;;;;;;;4965914;28;20687;-66
2022/07/14 00:04:03;;;;;;;6.10;4.43;;;;;;;;;;4972430;28;20223;-66
2022/07/14 00:06:30;;;;;;;8.03;4.87;;;;;;;;;;4973027;28;20224;-65
2022/07/14 00:09:15;;;;;;;5.63;4.87;;;;;;;;;;4947432;28;91393;-67
2022/07/14 00:11:47;;;;;;;5.20;4.57;;;;;;;;;;4906060;28;66322;-66
2022/07/14 00:14:31;;;;;;;4.87;4.37;;;;;;;;;;4973699;28;20275;-66
2022/07/14 00:16:58;;;;;;;7.03;4.57;;;;;;;;;;4939396;28;20261;-66
2022/07/14 00:19:42;;;;;;;5.20;4.27;;;;;;;;;;4957353;28;20235;-66
2022/07/14 00:22:09;;;;;;;6.27;3.87;;;;;;;;;;4952003;28;29646;-66
2022/07/14 00:24:36;;;;;;;5.57;4.23;;;;;;;;;;4927969;28;47652;-67
2022/07/14 00:27:03;;;;;;;8.43;4.23;;;;;;;;;;4958871;28;26451;-66
2022/07/14 00:29:30;;;;;;;7.53;3.97;;;;;;;;;;4962584;28;20240;-66
2022/07/14 00:32:03;;;;;;;8.10;3.97;;;;;;;;;;4931734;28;40336;-65
2022/07/14 00:34:31;;;;;;;7.17;4.27;;;;;;;;;;4879272;28;184648;-68
2022/07/14 00:37:03;;;;;;;7.23;4.10;;;;;;;;;;4866871;28;70470;-70
2022/07/14 00:42:47;;;;;;;6.70;4.53;;;;;;;;;;4817092;28;88559;-68
2022/07/14 00:45:19;;;;;;;8.20;4.00;;;;;;;;;;4857500;28;227442;-67
2022/07/14 00:47:53;;;;;;;7.90;3.97;;;;;;;;;;4896791;28;61639;-67
2022/07/14 00:50:22;;;;;;;5.83;3.87;;;;;;;;;;4937947;28;80028;-65
2022/07/14 00:53:07;;;;;;;7.07;4.27;;;;;;;;;;4910932;28;40423;-65
2022/07/14 00:55:36;;;;;;;8.57;4.43;;;;;;;;;;4965095;28;58710;-65
2022/07/14 00:58:09;;;;;;;5.63;3.70;;;;;;;;;;4960186;28;33962;-65
2022/07/14 01:00:37;;;;;;;6.80;3.23;;;;;;;;;;4949613;28;23680;-66
2022/07/14 01:03:21;;;;;;;6.57;3.27;;;;;;;;;;4934246;28;99070;-66
2022/07/14 01:05:48;;;;;;;9.40;3.47;;;;;;;;;;4926756;28;94880;-66
2022/07/14 01:08:14;;;;;;;6.43;2.70;;;;;;;;;;4940131;28;33875;-66
2022/07/14 01:10:46;;;;;;;6.90;2.80;;;;;;;;;;4935079;28;68322;-66
2022/07/14 01:13:14;;;;;;;8.47;2.90;;;;;;;;;;4951817;28;21457;-67
2022/07/14 01:15:41;;;;;;;5.60;2.90;;;;;;;;;;4932120;28;23910;-65
2022/07/14 01:18:09;;;;;;;5.63;2.40;;;;;;;;;;4922567;28;20251;-65
2022/07/14 01:20:36;;;;;;;8.03;2.67;;;;;;;;;;4971272;28;20588;-66
2022/07/14 01:23:03;;;;;;;6.70;2.73;;;;;;;;;;4940725;28;60300;-66
2022/07/14 01:25:48;;;;;;;7.33;3.47;;;;;;;;;;4916838;28;70866;-68
2022/07/14 01:28:19;;;;;;;8.10;2.70;;;;;;;;;;4956648;28;24823;-64
2022/07/14 01:30:46;;;;;;;4.70;2.17;;;;;;;;;;4958991;28;20232;-64
2022/07/14 01:33:13;;;;;;;6.50;2.17;;;;;;;;;;4958099;28;21028;-64
2022/07/14 01:35:57;;;;;;;5.90;2.60;;;;;;;;;;4959995;28;20224;-64
2022/07/14 01:38:24;;;;;;;6.77;2.50;;;;;;;;;;4938861;28;20307;-64
2022/07/14 01:40:51;;;;;;;5.57;2.43;;;;;;;;;;4972245;28;20263;-64
2022/07/14 01:43:17;;;;;;;8.00;2.67;;;;;;;;;;4978384;28;20246;-65
2022/07/14 01:45:44;;;;;;;10.07;3.50;;;;;;;;;;4980739;28;20220;-64
2022/07/14 01:48:11;;;;;;;7.50;3.20;;;;;;;;;;4977318;28;20251;-65
2022/07/14 01:50:38;;;;;;;9.20;2.70;;;;;;;;;;4980004;28;20235;-64
2022/07/14 01:53:05;;;;;;;12.20;4.37;;;;;;;;;;4972957;28;20692;-65
2022/07/14 01:55:34;;;;;;;9.70;3.60;;;;;;;;;;4979228;28;20235;-64
2022/07/14 01:58:18;;;;;;;7.73;2.97;;;;;;;;;;4960258;28;20219;-65
2022/07/14 02:01:38;;;;;;;8.87;2.50;;;;;;;;;;4978873;28;20595;-65
2022/07/14 02:03:38;;;;;;;8.97;3.00;;;;;;;;;;4954215;28;20255;-65
2022/07/14 02:06:05;;;;;;;10.40;3.47;;;;;;;;;;4979834;28;20713;-65
2022/07/14 02:08:49;;;;;;;9.70;3.03;;;;;;;;;;4980118;28;20270;-65
2022/07/14 02:14:03;;;;;;;9.20;3.00;;;;;;;;;;4960182;28;20299;-65
2022/07/14 02:16:30;;;;;;;9.80;2.77;;;;;;;;;;4977954;28;20223;-66
2022/07/14 02:18:58;;;;;;;9.23;2.80;;;;;;;;;;4937333;28;20698;-65
2022/07/14 02:21:26;;;;;;;6.43;2.23;;;;;;;;;;4961046;28;20958;-65
2022/07/14 02:23:54;;;;;;;5.53;2.50;;;;;;;;;;4976417;28;21634;-66
2022/07/14 02:26:23;;;;;;;8.23;2.77;;;;;;;;;;4962559;28;43031;-66
2022/07/14 02:28:50;;;;;;;7.13;2.10;;;;;;;;;;4973058;28;35409;-65
2022/07/14 02:31:17;;;;;;;21.83;2.60;;;;;;;;;;4949394;28;26634;-65
2022/07/14 02:33:45;;;;;;;6.03;2.20;;;;;;;;;;4970506;28;40996;-65
2022/07/14 02:36:12;;;;;;;7.00;2.47;;;;;;;;;;4975416;28;20330;-67
2022/07/14 02:38:39;;;;;;;7.93;2.17;;;;;;;;;;4969334;28;20236;-66
2022/07/14 02:41:06;;;;;;;6.33;2.33;;;;;;;;;;4973549;28;20230;-65
2022/07/14 02:43:35;;;;;;;7.07;2.23;;;;;;;;;;4953305;28;21080;-65
2022/07/14 02:46:04;;;;;;;9.57;2.40;;;;;;;;;;4961404;28;20236;-65
2022/07/14 02:48:31;;;;;;;9.00;2.47;;;;;;;;;;4980082;28;20259;-65
2022/07/14 02:51:02;;;;;;;8.07;1.80;;;;;;;;;;4961911;28;20942;-65
2022/07/14 02:53:30;;;;;;;6.90;2.00;;;;;;;;;;4972681;28;20231;-66
2022/07/14 02:55:57;;;;;;;7.03;2.50;;;;;;;;;;4942138;28;25937;-66
2022/07/14 02:58:24;;;;;;;7.73;3.00;;;;;;;;;;4975163;28;20685;-66
2022/07/14 03:00:52;;;;;;;7.03;2.30;;;;;;;;;;4974254;28;20234;-66
2022/07/14 03:03:19;;;;;;;11.43;2.77;;;;;;;;;;4961548;28;23402;-67
2022/07/14 03:05:46;;;;;;;11.87;2.53;;;;;;;;;;4954061;28;20278;-66
2022/07/14 03:08:16;;;;;;;7.27;1.80;;;;;;;;;;4976342;28;20240;-69
2022/07/14 03:11:01;;;;;;;9.50;2.00;;;;;;;;;;4966342;28;20710;-66
2022/07/14 03:13:29;;;;;;;8.50;2.33;;;;;;;;;;4958237;28;20232;-64
2022/07/14 03:15:55;;;;;;;8.80;1.90;;;;;;;;;;4965576;28;20219;-65
2022/07/14 03:18:24;;;;;;;9.70;2.23;;;;;;;;;;4981882;28;20232;-65
2022/07/14 03:20:53;;;;;;;8.40;1.60;;;;;;;;;;4980766;28;20320;-66
2022/07/14 03:23:42;;;;;;;7.13;2.10;;;;;;;;;;4965364;28;20236;-65
2022/07/14 03:26:14;;;;;;;7.60;1.90;;;;;;;;;;4952431;28;20309;-65
2022/07/14 03:28:59;;;;;;;12.77;2.37;;;;;;;;;;4982254;28;20219;-65
2022/07/14 03:31:26;;;;;;;6.87;1.83;;;;;;;;;;4962607;28;22189;-65
2022/07/14 03:34:13;;;;;;;6.60;2.30;;;;;;;;;;4985974;28;20695;-69
2022/07/14 03:36:43;;;;;;;11.30;2.67;;;;;;;;;;4952964;28;20236;-65
2022/07/14 03:39:19;;;;;;;8.00;1.70;;;;;;;;;;4939659;28;20310;-65
2022/07/14 03:41:46;;;;;;;6.97;1.70;;;;;;;;;;4969205;28;20354;-65
2022/07/14 03:44:31;;;;;;;6.73;1.80;;;;;;;;;;4964070;28;47446;-65
2022/07/14 03:46:58;;;;;;;8.83;1.90;;;;;;;;;;4979911;28;21639;-65
2022/07/14 03:49:25;;;;;;;4.73;1.60;;;;;;;;;;4957803;28;20239;-65
2022/07/14 03:51:56;;;;;;;6.43;1.57;;;;;;;;;;4962684;28;20363;-65
2022/07/14 03:54:23;;;;;;;7.73;1.83;;;;;;;;;;4965998;28;20695;-66
2022/07/14 03:56:51;;;;;;;3.97;1.30;;;;;;;;;;4972453;28;20319;-66
2022/07/14 03:59:20;;;;;;;5.20;1.23;;;;;;;;;;4969025;28;20232;-65
2022/07/14 04:01:47;;;;;;;7.73;1.70;;;;;;;;;;4972631;28;24299;-66
2022/07/14 04:04:15;;;;;;;5.87;1.87;;;;;;;;;;4952317;28;21071;-67
2022/07/14 04:06:44;;;;;;;5.73;1.30;;;;;;;;;;4955301;28;20236;-68
2022/07/14 04:09:10;;;;;;;7.93;1.60;;;;;;;;;;4975739;28;20228;-69
2022/07/14 04:11:42;;;;;;;7.77;1.67;;;;;;;;;;4960913;28;20234;-66
2022/07/14 04:14:10;;;;;;;5.93;1.40;;;;;;;;;;4975918;28;20592;-70
2022/07/14 04:16:38;;;;;;;5.10;1.30;;;;;;;;;;4964816;28;20765;-66
2022/07/14 04:19:06;;;;;;;7.07;1.50;;;;;;;;;;4976677;28;20235;-66
2022/07/14 04:21:34;;;;;;;5.63;1.20;;;;;;;;;;4973823;28;20713;-66
2022/07/14 04:24:01;;;;;;;5.60;1.33;;;;;;;;;;4921207;28;20334;-67
2022/07/14 04:26:28;;;;;;;4.83;1.10;;;;;;;;;;4974381;28;20232;-66
2022/07/14 04:28:57;;;;;;;5.10;1.40;;;;;;;;;;4939264;28;20232;-66
2022/07/14 04:31:24;;;;;;;10.00;2.40;;;;;;;;;;4914008;28;20289;-66
2022/07/14 04:33:51;;;;;;;9.73;1.97;;;;;;;;;;4963415;28;20237;-66
2022/07/14 04:36:18;;;;;;;7.97;1.70;;;;;;;;;;4940875;28;20236;-66
2022/07/14 04:38:45;;;;;;;6.03;1.77;;;;;;;;;;4973450;28;20317;-66
2022/07/14 04:41:12;;;;;;;4.73;1.00;;;;;;;;;;4962237;28;20302;-67
2022/07/14 04:43:40;;;;;;;8.20;1.43;;;;;;;;;;4958744;28;20236;-66
2022/07/14 04:46:09;;;;;;;5.33;1.70;;;;;;;;;;4952225;28;20237;-69
2022/07/14 04:54:17;;;;;;;3.20;1.20;;;;;;;;;;4945488;28;23995;-66
2022/07/14 04:56:50;;;;;;;6.67;1.43;;;;;;;;;;4972075;28;20579;-66
2022/07/14 04:59:32;;;;;;;10.50;1.67;;;;;;;;;;4977692;28;20239;-66
2022/07/14 05:02:00;;;;;;;6.50;1.67;;;;;;;;;;4978085;28;20355;-66
2022/07/14 05:04:29;;;;;;;8.53;1.53;;;;;;;;;;4935607;28;23610;-67
2022/07/14 05:06:56;;;;;;;7.87;1.30;;;;;;;;;;4955098;28;20235;-67
2022/07/14 05:09:32;;;;;;;5.40;1.40;;;;;;;;;;4939300;28;20662;-66
2022/07/14 05:12:00;;;;;;;6.77;1.73;;;;;;;;;;4977803;28;20294;-67
2022/07/14 05:14:29;;;;;;;7.00;1.30;;;;;;;;;;4962047;28;20238;-68
2022/07/14 05:16:59;;;;;;;7.60;1.40;;;;;;;;;;4963723;28;22678;-66
2022/07/14 05:19:53;;;;;;;5.23;1.20;;;;;;;;;;4961412;28;20228;-67
2022/07/14 05:22:19;;;;;;;7.63;1.30;;;;;;;;;;4980315;28;20237;-67
2022/07/14 05:24:46;;;;;;;5.23;0.90;;;;;;;;;;4965842;28;20246;-67
2022/07/14 05:27:14;;;;;;;6.77;1.50;;;;;;;;;;4978406;28;21072;-67
2022/07/14 05:29:42;;;;;;;9.23;1.87;;;;;;;;;;4976632;28;20299;-66
2022/07/14 05:32:10;;;;;;;5.80;1.17;;;;;;;;;;4978753;28;20227;-67
2022/07/14 05:34:42;;;;;;;7.20;1.03;;;;;;;;;;4961649;28;20239;-67
2022/07/14 05:37:12;;;;;;;4.93;1.13;;;;;;;;;;4946818;28;20297;-67
2022/07/14 05:39:56;;;;;;;6.77;1.10;;;;;;;;;;4963132;28;20235;-69
2022/07/14 05:42:23;;;;;;;3.50;1.00;;;;;;;;;;4962040;28;20260;-67
2022/07/14 05:45:08;;;;;;;4.20;1.30;;;;;;;;;;4959105;28;20259;-67
2022/07/14 05:47:35;;;;;;;3.47;1.00;;;;;;;;;;4971664;28;20273;-69
2022/07/14 05:50:02;;;;;;;7.83;1.13;;;;;;;;;;4980256;28;20698;-67
2022/07/14 05:52:30;;;;;;;6.57;1.33;;;;;;;;;;4978197;28;20223;-66
2022/07/14 05:54:58;;;;;;;6.13;1.43;;;;;;;;;;4978320;28;20216;-67
2022/07/14 05:57:25;;;;;;;6.10;1.03;;;;;;;;;;4956070;28;20592;-67
2022/07/14 05:59:52;;;;;;;6.83;1.67;;;;;;;;;;4978136;28;20223;-67
2022/07/14 06:02:19;;;;;;;8.93;1.23;;;;;;;;;;4981105;28;20271;-67
2022/07/14 06:04:46;;;;;;;6.90;1.13;;;;;;;;;;4978830;28;20262;-67
2022/07/14 06:07:13;;;;;;;4.17;1.10;;;;;;;;;;4980509;28;20314;-67
2022/07/14 06:09:44;;;;;;;5.13;1.10;;;;;;;;;;4955490;28;20331;-67
2022/07/14 06:12:13;;;;;;;5.13;1.13;;;;;;;;;;4962772;28;20227;-66
2022/07/14 06:14:43;;;;;;;5.97;1.00;;;;;;;;;;4939963;28;20749;-67
2022/07/14 06:17:10;;;;;;;4.90;1.17;;;;;;;;;;4803358;28;5091299;-66
2022/07/14 06:19:38;;;;;;;7.53;1.07;;;;;;;;;;4962169;28;20231;-67
2022/07/14 06:22:05;;;;;;;5.27;1.17;;;;;;;;;;4976197;28;20236;-66
2022/07/14 06:24:33;;;;;;;5.47;0.83;;;;;;;;;;4789314;28;5085812;-67
2022/07/14 06:27:00;;;;;;;4.60;1.10;;;;;;;;;;4961824;28;20257;-66
2022/07/14 06:29:27;;;;;;;6.83;1.10;;;;;;;;;;4978351;28;20450;-66
2022/07/14 06:31:55;;;;;;;7.30;1.20;;;;;;;;;;4961978;28;21025;-67
2022/07/14 06:34:23;;;;;;;5.93;1.10;;;;;;;;;;4966460;28;20592;-67
2022/07/14 06:37:00;;;;;;;3.67;0.90;;;;;;;;;;4965107;28;20311;-67
2022/07/14 06:39:28;;;;;;;4.13;1.00;;;;;;;;;;4978360;28;20314;-68
2022/07/14 06:41:55;;;;;;;3.73;1.03;;;;;;;;;;4967956;28;20239;-67
2022/07/14 06:44:28;;;;;;;4.20;0.87;;;;;;;;;;4982110;28;20895;-68
2022/07/14 06:46:55;;;;;;;5.73;1.13;;;;;;;;;;4984892;28;21073;-67
2022/07/14 06:49:21;;;;;;;4.90;1.03;;;;;;;;;;4982297;28;20266;-68
2022/07/14 06:51:48;;;;;;;5.43;1.03;;;;;;;;;;4958467;28;20240;-67
2022/07/14 06:54:22;;;;;;;3.50;0.80;;;;;;;;;;4932581;28;20231;-67
2022/07/14 06:56:49;;;;;;;6.07;1.33;;;;;;;;;;4959934;28;20231;-67
2022/07/14 06:59:16;;;;;;;7.07;1.40;;;;;;;;;;4984468;28;20455;-67
2022/07/14 07:01:42;;;;;;;5.10;1.17;;;;;;;;;;4959302;28;20246;-67
2022/07/14 07:04:09;;;;;;;7.00;1.20;;;;;;;;;;4983261;28;20223;-66
2022/07/14 07:06:44;;;;;;;6.63;1.53;;;;;;;;;;4984034;28;20593;-66
2022/07/14 07:09:28;;;;;;;6.17;1.17;;;;;;;;;;4982268;28;20308;-67
2022/07/14 07:11:55;;;;;;;5.33;1.40;;;;;;;;;;4983966;28;20224;-67
2022/07/14 07:14:22;;;;;;;5.60;1.50;;;;;;;;;;4982813;28;20267;-67
2022/07/14 07:16:49;;;;;;;5.03;1.10;;;;;;;;;;4983975;28;20224;-67
2022/07/14 07:19:18;;;;;;;3.37;0.90;;;;;;;;;;4980691;28;20310;-67
2022/07/14 07:21:45;;;;;;;3.23;1.00;;;;;;;;;;4984303;28;20264;-67
2022/07/14 07:24:11;;;;;;;3.50;1.00;;;;;;;;;;4965148;28;20362;-67
2022/07/14 07:26:38;;;;;;;5.70;1.27;;;;;;;;;;4983980;28;20246;-66
2022/07/14 07:29:05;;;;;;;4.43;0.90;;;;;;;;;;4981830;28;20311;-67
2022/07/14 07:31:33;;;;;;;2.97;1.00;;;;;;;;;;4983089;28;20751;-67
2022/07/14 07:34:00;;;;;;;4.97;1.00;;;;;;;;;;4981669;28;20231;-65
2022/07/14 07:36:27;;;;;;;5.50;1.27;;;;;;;;;;4984421;28;20656;-67
2022/07/14 07:38:54;;;;;;;6.43;1.33;;;;;;;;;;4959761;28;20232;-67
2022/07/14 07:41:20;;;;;;;5.90;1.07;;;;;;;;;;4959167;28;20765;-66
2022/07/14 07:44:05;;;;;;;3.53;0.80;;;;;;;;;;4955629;28;20231;-67
2022/07/14 07:46:32;;;;;;;5.10;0.90;;;;;;;;;;4982167;28;20307;-67
2022/07/14 07:48:59;;;;;;;4.17;1.00;;;;;;;;;;4982742;28;20232;-67
2022/07/14 07:51:26;;;;;;;3.73;0.90;;;;;;;;;;4959548;28;20238;-66
2022/07/14 07:53:52;;;;;;;4.37;0.80;;;;;;;;;;4981548;28;20243;-66
2022/07/14 07:56:37;;;;;;;4.13;1.30;;;;;;;;;;4982463;28;20751;-67
2022/07/14 07:59:03;;;;;;;2.33;0.70;;;;;;;;;;4981412;28;20231;-66
2022/07/14 08:01:30;;;;;;;7.07;1.30;;;;;;;;;;4983343;28;20235;-64
2022/07/14 08:03:57;;;;;;;5.00;0.93;;;;;;;;;;4933178;28;20274;-65
2022/07/14 08:06:24;;;;;;;4.30;0.80;;;;;;;;;;4983650;28;20930;-66
2022/07/14 08:09:04;;;;;;;4.63;1.13;;;;;;;;;;4982576;28;20234;-66
2022/07/14 08:11:32;;;;;;;3.13;0.77;;;;;;;;;;4958290;28;20862;-66
2022/07/14 08:13:59;;;;;;;2.90;0.90;;;;;;;;;;4980614;28;20254;-66
2022/07/14 08:16:26;;;;;;;4.20;0.80;;;;;;;;;;4982269;28;20232;-66
2022/07/14 08:19:10;;;;;;;3.27;1.10;;;;;;;;;;4979805;28;20741;-66
2022/07/14 08:21:37;;;;;;;4.47;0.73;;;;;;;;;;4982345;28;20246;-66
2022/07/14 08:24:04;;;;;;;2.53;0.70;;;;;;;;;;4957870;28;20221;-66
2022/07/14 08:26:31;;;;;;;4.80;0.70;;;;;;;;;;4981806;28;20304;-65
2022/07/14 08:28:57;;;;;;;3.33;0.83;;;;;;;;;;4982728;28;20228;-64
2022/07/14 08:31:24;;;;;;;2.77;0.60;;;;;;;;;;4957367;28;20244;-65
2022/07/14 08:33:51;;;;;;;3.13;0.90;;;;;;;;;;4981568;28;20310;-65
2022/07/14 08:36:18;;;;;;;4.10;0.90;;;;;;;;;;4982722;28;20313;-65
2022/07/14 08:38:45;;;;;;;3.87;0.70;;;;;;;;;;4957989;28;20321;-66
2022/07/14 08:41:29;;;;;;;6.13;0.90;;;;;;;;;;4980657;28;20630;-66
2022/07/14 08:43:56;;;;;;;2.70;0.80;;;;;;;;;;4949131;28;20234;-66
2022/07/14 08:46:23;;;;;;;4.23;0.90;;;;;;;;;;4979629;28;20247;-66
2022/07/14 08:48:53;;;;;;;3.67;1.00;;;;;;;;;;4982276;28;20250;-66
2022/07/14 08:51:24;;;;;;;4.47;0.90;;;;;;;;;;4981482;28;20271;-66
2022/07/14 08:53:50;;;;;;;3.63;0.70;;;;;;;;;;4980897;28;20259;-66
2022/07/14 08:56:17;;;;;;;5.40;1.03;;;;;;;;;;4982499;28;20254;-66
2022/07/14 08:58:44;;;;;;;3.23;0.83;;;;;;;;;;4956881;28;20710;-66
2022/07/14 09:01:11;;;;;;;5.20;0.87;;;;;;;;;;4979977;28;20242;-66
2022/07/14 09:03:39;;;;;;;6.03;0.90;;;;;;;;;;4981970;28;20243;-66
2022/07/14 09:06:45;;;;;;;4.53;1.27;;;;;;;;;;4957318;28;20270;-66
2022/07/14 09:09:13;;;;;;;6.10;1.00;;;;;;;;;;4980869;28;20381;-66
2022/07/14 09:11:50;;;;;;;4.23;1.00;;;;;;;;;;4981078;28;20224;-70
2022/07/14 09:17:29;;;;;;;4.33;1.30;;;;;;;;;;4982092;28;20228;-66
2022/07/14 09:20:07;;;;;;;6.00;0.70;;;;;;;;;;4979062;28;20250;-66
2022/07/14 09:22:36;;;;;;;5.37;0.80;;;;;;;;;;4980836;28;20642;-67
2022/07/14 09:25:20;;;;;;;3.37;0.70;;;;;;;;;;4982070;28;20239;-65
2022/07/14 09:27:47;;;;;;;7.10;1.07;;;;;;;;;;4980112;28;21653;-66
2022/07/14 09:30:14;;;;;;;4.23;1.13;;;;;;;;;;4960130;28;20314;-66
2022/07/14 09:32:42;;;;;;;6.20;0.87;;;;;;;;;;4982176;28;20232;-66
2022/07/14 09:35:11;;;;;;;3.37;0.80;;;;;;;;;;4962596;28;20231;-65
2022/07/14 09:37:40;;;;;;;3.50;0.83;;;;;;;;;;4979726;28;20721;-66
2022/07/14 09:40:15;;;;;;;2.87;0.70;;;;;;;;;;4959673;28;20239;-65
2022/07/14 09:43:00;;;;;;;4.77;0.80;;;;;;;;;;4979573;28;21387;-66
2022/07/14 09:45:34;;;;;;;2.60;0.80;;;;;;;;;;4981516;28;20235;-66
2022/07/14 09:48:02;;;;;;;3.43;0.97;;;;;;;;;;4960467;28;20323;-66
2022/07/14 09:50:32;;;;;;;3.67;1.00;;;;;;;;;;4980246;28;20314;-66
2022/07/14 09:52:59;;;;;;;3.97;1.00;;;;;;;;;;4965217;28;20221;-66
2022/07/14 09:55:25;;;;;;;2.70;0.80;;;;;;;;;;4979918;28;20235;-66
2022/07/14 09:58:10;;;;;;;2.63;0.83;;;;;;;;;;4979429;28;20575;-66
2022/07/14 10:00:37;;;;;;;4.50;1.00;;;;;;;;;;4981214;28;20366;-66
2022/07/14 10:03:04;;;;;;;2.30;0.70;;;;;;;;;;4963148;28;20228;-66
2022/07/14 10:05:31;;;;;;;2.47;0.70;;;;;;;;;;4980528;28;20701;-66
2022/07/14 10:07:58;;;;;;;4.57;1.10;;;;;;;;;;4963255;28;20703;-66
2022/07/14 10:10:25;;;;;;;5.30;0.97;;;;;;;;;;4981230;28;20228;-66
2022/07/14 10:12:53;;;;;;;4.70;0.80;;;;;;;;;;4983072;28;20239;-65
2022/07/14 10:15:20;;;;;;;5.93;1.10;;;;;;;;;;4963439;28;20259;-66
2022/07/14 10:17:47;;;;;;;3.70;0.73;;;;;;;;;;4966454;28;20243;-67
2022/07/14 10:20:15;;;;;;;4.67;0.90;;;;;;;;;;4968475;28;20603;-66
2022/07/14 10:22:43;;;;;;;5.20;0.77;;;;;;;;;;4965995;28;20222;-66
2022/07/14 10:25:09;;;;;;;3.73;0.83;;;;;;;;;;4964162;28;20252;-66
2022/07/14 10:27:42;;;;;;;5.57;0.90;;;;;;;;;;4982799;28;20231;-66
2022/07/14 10:30:15;;;;;;;3.57;0.83;;;;;;;;;;4983077;28;20231;-66
2022/07/14 10:32:48;;;;;;;3.77;0.90;;;;;;;;;;4982616;28;20261;-67
2022/07/14 10:35:35;;;;;;;3.20;0.77;;;;;;;;;;4982584;28;20228;-66
2022/07/14 10:38:04;;;;;;;4.67;1.03;;;;;;;;;;4985012;28;20234;-66
2022/07/14 10:40:39;;;;;;;3.77;0.90;;;;;;;;;;4983075;28;20253;-66
2022/07/14 10:43:24;;;;;;;2.97;1.00;;;;;;;;;;4967143;28;20242;-66
2022/07/14 10:45:52;;;;;;;4.40;1.00;;;;;;;;;;4984305;28;20343;-66
2022/07/14 10:48:35;;;;;;;4.67;0.83;;;;;;;;;;4983381;28;20266;-66
2022/07/14 10:51:14;;;;;;;3.23;1.20;;;;;;;;;;4984817;28;20223;-66
2022/07/14 10:54:15;;;;;;;4.13;0.60;;;;;;;;;;4982916;28;20224;-66
2022/07/14 10:57:09;;;;;;;4.10;0.93;;;;;;;;;;4982935;28;20383;-66
2022/07/14 10:59:37;;;;;;;3.30;0.80;;;;;;;;;;4966046;28;20702;-66
2022/07/14 11:02:13;;;;;;;15.27;1.40;;;;;;;;;;4984185;28;20256;-66
2022/07/14 11:04:59;;;;;;;7.03;1.10;;;;;;;;;;4984385;28;20239;-66
2022/07/14 11:07:43;;;;;;;4.57;0.93;;;;;;;;;;4851503;28;3348715;-65
2022/07/14 11:10:19;;;;;;;3.10;0.70;;;;;;;;;;4984659;28;20236;-66
2022/07/14 11:12:58;;;;;;;3.93;1.20;;;;;;;;;;4982960;28;20255;-65
2022/07/14 11:15:41;;;;;;;4.60;0.97;;;;;;;;;;4982870;28;20253;-65
2022/07/14 11:18:17;;;;;;;4.60;1.07;;;;;;;;;;4983222;28;20231;-65
2022/07/14 11:21:00;;;;;;;5.47;1.33;;;;;;;;;;4951738;28;20228;-66
2022/07/14 11:23:35;;;;;;;4.03;1.80;;;;;;;;;;4981412;28;20232;-66
2022/07/14 11:26:38;;;;;;;4.07;0.70;;;;;;;;;;4983841;28;20224;-65
2022/07/14 11:29:13;;;;;;;3.80;0.90;;;;;;;;;;4981849;28;20232;-65
2022/07/14 11:31:44;;;;;;;5.87;0.80;;;;;;;;;;4983695;28;20227;-65
2022/07/14 11:37:05;;;;;;;1.97;0.60;;;;;;;;;;4972545;28;20669;-66
2022/07/14 11:39:52;;;;;;;3.03;0.87;;;;;;;;;;4982484;28;20236;-65
2022/07/14 11:42:19;;;;;;;2.33;0.90;;;;;;;;;;4966439;28;20243;-66
2022/07/14 11:44:47;;;;;;;3.23;1.00;;;;;;;;;;4982320;28;20224;-66
2022/07/14 11:47:15;;;;;;;3.37;0.70;;;;;;;;;;4982144;28;20227;-66
2022/07/14 11:49:42;;;;;;;4.10;0.90;;;;;;;;;;4966574;28;20239;-66
2022/07/14 11:52:09;;;;;;;3.50;0.70;;;;;;;;;;4965587;28;20756;-66
2022/07/14 11:54:36;;;;;;;4.67;1.03;;;;;;;;;;4983311;28;20250;-66
2022/07/14 11:57:05;;;;;;;2.80;0.90;;;;;;;;;;4981868;28;20242;-66
2022/07/14 11:59:33;;;;;;;3.53;0.70;;;;;;;;;;4980526;28;20232;-67
2022/07/14 12:02:09;;;;;;;5.37;1.00;;;;;;;;;;4983245;28;20232;-66
2022/07/14 12:04:48;;;;;;;3.77;1.10;;;;;;;;;;4981305;28;20244;-66
2022/07/14 12:07:15;;;;;;;5.43;1.30;;;;;;;;;;4981612;28;20379;-66
2022/07/14 12:09:42;;;;;;;3.97;0.90;;;;;;;;;;4983172;28;20227;-66
2022/07/14 12:12:12;;;;;;;3.83;0.90;;;;;;;;;;4981554;28;20234;-66
2022/07/14 12:14:49;;;;;;;3.57;1.00;;;;;;;;;;4982938;28;20725;-66
2022/07/14 12:17:45;;;;;;;5.33;1.40;;;;;;;;;;4981530;28;20228;-66
2022/07/14 12:20:11;;;;;;;4.13;1.20;;;;;;;;;;4981629;28;20572;-66
2022/07/14 12:22:43;;;;;;;6.40;1.30;;;;;;;;;;4983020;28;20306;-69
2022/07/14 12:25:28;;;;;;;3.00;0.80;;;;;;;;;;4982251;28;20873;-66
2022/07/14 12:27:55;;;;;;;4.53;1.27;;;;;;;;;;4981961;28;21052;-65
2022/07/14 12:30:22;;;;;;;7.07;1.37;;;;;;;;;;4964331;28;20386;-67
2022/07/14 12:32:52;;;;;;;5.80;1.00;;;;;;;;;;4981691;28;20239;-67
2022/07/14 12:35:22;;;;;;;3.80;1.03;;;;;;;;;;4979499;28;20248;-68
2022/07/14 12:37:50;;;;;;;6.33;0.93;;;;;;;;;;4979858;28;20314;-69
2022/07/14 12:40:37;;;;;;;4.83;0.87;;;;;;;;;;4981719;28;20239;-66
2022/07/14 12:43:04;;;;;;;5.57;1.07;;;;;;;;;;4980831;28;20765;-67
2022/07/14 12:45:31;;;;;;;3.63;0.83;;;;;;;;;;4965747;28;20237;-66
2022/07/14 12:48:01;;;;;;;4.10;0.73;;;;;;;;;;4963467;28;20680;-67
2022/07/14 12:50:28;;;;;;;5.17;1.33;;;;;;;;;;4980581;28;20232;-67
2022/07/14 12:52:57;;;;;;;4.97;0.70;;;;;;;;;;4981983;28;20242;-66
2022/07/14 12:55:44;;;;;;;2.43;0.80;;;;;;;;;;4979552;28;20239;-66
2022/07/14 12:58:11;;;;;;;5.07;1.00;;;;;;;;;;4981330;28;20239;-68
2022/07/14 13:00:39;;;;;;;5.20;1.07;;;;;;;;;;4964529;28;20242;-68
2022/07/14 13:03:10;;;;;;;3.90;0.90;;;;;;;;;;4964874;28;20691;-68
2022/07/14 13:05:37;;;;;;;1.60;0.90;;;;;;;;;;4980247;28;20246;-68
2022/07/14 13:08:23;;;;;;;3.70;0.97;;;;;;;;;;4982388;28;20223;-68
2022/07/14 13:10:55;;;;;;;3.47;0.73;;;;;;;;;;4980162;28;20238;-68
2022/07/14 13:13:30;;;;;;;2.83;0.70;;;;;;;;;;4980167;28;20244;-68
2022/07/14 13:16:14;;;;;;;5.03;1.00;;;;;;;;;;4980273;28;20290;-68
2022/07/14 13:18:59;;;;;;;4.40;1.10;;;;;;;;;;4964997;28;20246;-68
2022/07/14 13:21:45;;;;;;;3.73;0.90;;;;;;;;;;4980326;28;20262;-70
2022/07/14 13:24:15;;;;;;;3.63;1.00;;;;;;;;;;4982047;28;20591;-68
2022/07/14 13:26:42;;;;;;;3.50;0.80;;;;;;;;;;4980353;28;20241;-68
2022/07/14 13:29:09;;;;;;;3.33;1.10;;;;;;;;;;4981733;28;20267;-70
2022/07/14 13:31:36;;;;;;;3.67;0.90;;;;;;;;;;4979929;28;20694;-68
2022/07/14 13:34:03;;;;;;;4.27;0.77;;;;;;;;;;4981212;28;20224;-68
2022/07/14 13:36:30;;;;;;;3.40;0.87;;;;;;;;;;4966278;28;20236;-68
2022/07/14 13:38:58;;;;;;;5.30;0.90;;;;;;;;;;4981967;28;20259;-68
2022/07/14 13:41:25;;;;;;;5.33;0.90;;;;;;;;;;4978963;28;20228;-67
2022/07/14 13:43:53;;;;;;;6.40;0.80;;;;;;;;;;4981634;28;20310;-67
2022/07/14 13:46:20;;;;;;;3.30;0.70;;;;;;;;;;4980175;28;20240;-67
2022/07/14 13:48:47;;;;;;;2.40;0.67;;;;;;;;;;4981428;28;20306;-68
2022/07/14 13:54:00;;;;;;;2.93;0.80;;;;;;;;;;4981908;28;20573;-68
2022/07/14 13:56:27;;;;;;;3.03;0.90;;;;;;;;;;4979217;28;20227;-67
2022/07/14 13:58:55;;;;;;;3.13;0.60;;;;;;;;;;4981936;28;21033;-68
2022/07/14 14:01:22;;;;;;;4.30;1.00;;;;;;;;;;4979672;28;20262;-68
2022/07/14 14:03:48;;;;;;;3.60;0.60;;;;;;;;;;4981615;28;20224;-67
2022/07/14 14:06:35;;;;;;;4.17;0.73;;;;;;;;;;4979140;28;20921;-68
2022/07/14 14:09:03;;;;;;;3.33;0.60;;;;;;;;;;4982471;28;20239;-67
2022/07/14 14:11:30;;;;;;;3.60;0.70;;;;;;;;;;4960492;28;20556;-68
2022/07/14 14:13:57;;;;;;;3.37;0.60;;;;;;;;;;4980928;28;20231;-68
2022/07/14 14:16:26;;;;;;;3.80;0.77;;;;;;;;;;4962883;28;20266;-67
2022/07/14 14:18:54;;;;;;;3.87;1.23;;;;;;;;;;4981548;28;27440;-67
2022/07/14 14:21:38;;;;;;;3.70;1.00;;;;;;;;;;4979469;28;20322;-68
2022/07/14 14:24:08;;;;;;;4.43;0.50;;;;;;;;;;4981378;28;20310;-68
2022/07/14 14:26:35;;;;;;;3.67;0.80;;;;;;;;;;4963419;28;20347;-68
2022/07/14 14:29:02;;;;;;;2.87;0.70;;;;;;;;;;4981317;28;20247;-68
2022/07/14 14:31:29;;;;;;;2.93;0.50;;;;;;;;;;4964645;28;20730;-67
2022/07/14 14:33:56;;;;;;;3.47;0.97;;;;;;;;;;4979965;28;20231;-68
2022/07/14 14:36:22;;;;;;;4.93;0.97;;;;;;;;;;4981592;28;20227;-68
2022/07/14 14:38:49;;;;;;;2.87;0.70;;;;;;;;;;4964887;28;20298;-68
2022/07/14 14:41:16;;;;;;;1.97;0.50;;;;;;;;;;4981549;28;20219;-67
2022/07/14 14:43:43;;;;;;;1.13;0.50;;;;;;;;;;4978821;28;20275;-68
2022/07/14 14:46:11;;;;;;;5.03;1.00;;;;;;;;;;4981100;28;20597;-68
2022/07/14 14:48:39;;;;;;;4.60;0.90;;;;;;;;;;4979177;28;20236;-67
2022/07/14 14:51:06;;;;;;;6.23;1.20;;;;;;;;;;4981599;28;20239;-68
2022/07/14 14:53:33;;;;;;;6.43;1.27;;;;;;;;;;4979360;28;20699;-67
2022/07/14 14:56:00;;;;;;;4.37;1.20;;;;;;;;;;4981558;28;20271;-68
2022/07/14 14:58:27;;;;;;;3.00;0.73;;;;;;;;;;4982944;28;20307;-68
2022/07/14 15:00:53;;;;;;;2.17;1.10;;;;;;;;;;4984407;28;20251;-67
2022/07/14 15:03:21;;;;;;;3.27;0.70;;;;;;;;;;4983693;28;20224;-67
2022/07/14 15:05:48;;;;;;;3.83;0.90;;;;;;;;;;4985522;28;20262;-68
2022/07/14 15:08:14;;;;;;;3.67;1.90;;;;;;;;;;4983046;28;20305;-68
2022/07/14 15:10:41;;;;;;;4.37;1.20;;;;;;;;;;4985067;28;20238;-68
2022/07/14 15:13:08;;;;;;;3.40;1.27;;;;;;;;;;4983121;28;20231;-68
2022/07/14 15:15:35;;;;;;;4.20;1.17;;;;;;;;;;4984386;28;20231;-68
2022/07/14 15:18:20;;;;;;;6.07;0.80;;;;;;;;;;4981495;28;21110;-69
2022/07/14 15:20:46;;;;;;;3.53;0.73;;;;;;;;;;4984576;28;20274;-69
2022/07/14 15:23:13;;;;;;;2.30;0.70;;;;;;;;;;4982272;28;20380;-69
2022/07/14 15:25:40;;;;;;;2.80;0.80;;;;;;;;;;4984890;28;20306;-69